Time;durP1;ratioP1;P1;durP2;ratioP2;P2;SDS_P1;SDS_P2;PMS_P1;PMS_P2;Temp;Humidity;BMP_temperature;BMP_pressure;BME280_temperature;BME280_humidity;BME280_pressure;Samples;Min_cycle;Max_cycle;Signal;HPM_P1;HPM_P2
2022/11/29 00:01:41;;;;;;;;;;;7.70;99.90;;;;;;5074920;28;20379;-88
2022/11/29 00:04:09;;;;;;;;;;;7.40;99.90;;;;;;5075478;28;19924;-88
2022/11/29 00:06:35;;;;;;;;;;;8.20;99.90;;;;;;5075484;28;19924;-88
2022/11/29 00:09:05;;;;;;;;;;;7.40;99.90;;;;;;5075329;28;19931;-88
2022/11/29 00:14:21;;;;;;;;;;;6.90;99.90;;;;;;5096309;28;20023;-88
2022/11/29 00:16:51;;;;;;;;;;;7.40;99.90;;;;;;5096896;28;19924;-87
2022/11/29 00:19:17;;;;;;;;;;;7.40;99.90;;;;;;5095851;28;20326;-88
2022/11/29 00:21:43;;;;;;;;;;;7.40;99.90;;;;;;5096254;28;19924;-88
2022/11/29 00:24:09;;;;;;;;;;;6.40;99.90;;;;;;5079217;28;19928;-88
2022/11/29 00:26:37;;;;;;;;;;;7.30;99.90;;;;;;5095869;28;19924;-87
2022/11/29 00:29:03;;;;;;;;;;;7.30;99.90;;;;;;5095797;28;19924;-88
2022/11/29 00:31:29;;;;;;;;;;;8.30;99.90;;;;;;5078777;28;19928;-88
2022/11/29 00:33:59;;;;;;;;;;;7.30;99.90;;;;;;5079291;28;19959;-88
2022/11/29 00:36:27;;;;;;;;;;;7.20;99.90;;;;;;5078216;28;20457;-88
2022/11/29 00:38:55;;;;;;;;;;;7.40;99.90;;;;;;5078724;28;19924;-88
2022/11/29 00:41:21;;;;;;;;;;;7.90;99.90;;;;;;5095672;28;19928;-87
2022/11/29 00:43:47;;;;;;;;;;;7.30;99.90;;;;;;5078767;28;19932;-88
2022/11/29 00:46:12;;;;;;;;;;;7.30;99.90;;;;;;5078298;28;19924;-88
2022/11/29 00:48:45;;;;;;;;;;;7.20;99.90;;;;;;5078717;28;19955;-88
2022/11/29 00:51:13;;;;;;;;;;;7.30;99.90;;;;;;5063519;28;19924;-88
2022/11/29 00:53:39;;;;;;;;;;;7.30;99.90;;;;;;5096885;28;20379;-88
2022/11/29 00:56:05;;;;;;;;;;;6.50;99.90;;;;;;5079422;28;19924;-88
2022/11/29 00:58:33;;;;;;;;;;;7.30;99.90;;;;;;5079025;28;19932;-87
2022/11/29 01:01:06;;;;;;;;;;;8.00;99.90;;;;;;5077759;28;19928;-88
2022/11/29 01:03:47;;;;;;;;;;;8.00;99.90;;;;;;5078290;28;20375;-88
2022/11/29 01:06:18;;;;;;;;;;;7.30;99.90;;;;;;5063346;28;20244;-87
2022/11/29 01:08:47;;;;;;;;;;;7.30;99.90;;;;;;5078369;28;19939;-88
2022/11/29 01:11:20;;;;;;;;;;;7.20;99.90;;;;;;5077657;28;20356;-88
2022/11/29 01:13:46;;;;;;;;;;;7.30;99.90;;;;;;5078691;28;19931;-88
2022/11/29 01:16:13;;;;;;;;;;;7.60;99.90;;;;;;5078134;28;19924;-88
2022/11/29 01:18:38;;;;;;;;;;;7.90;99.90;;;;;;5078254;28;20320;-88
2022/11/29 01:21:08;;;;;;;;;;;7.20;99.90;;;;;;5094828;28;19935;-87
2022/11/29 01:23:37;;;;;;;;;;;6.80;99.90;;;;;;5077264;28;19924;-87
2022/11/29 01:26:04;;;;;;;;;;;8.50;99.90;;;;;;5094857;28;19935;-88
2022/11/29 01:28:33;;;;;;;;;;;7.20;99.90;;;;;;5077683;28;19924;-88
2022/11/29 01:31:03;;;;;;;;;;;7.30;99.90;;;;;;5078471;28;20233;-87
2022/11/29 01:33:34;;;;;;;;;;;6.40;99.90;;;;;;5077357;28;19928;-87
2022/11/29 01:36:02;;;;;;;;;;;8.20;99.90;;;;;;5077377;28;19931;-88
2022/11/29 01:38:27;;;;;;;;;;;6.40;99.90;;;;;;5094499;28;19928;-88
2022/11/29 01:41:03;;;;;;;;;;;7.20;99.90;;;;;;5077505;28;20210;-88
2022/11/29 01:43:29;;;;;;;;;;;7.10;99.90;;;;;;5095122;28;19925;-87
2022/11/29 01:45:58;;;;;;;;;;;8.20;99.90;;;;;;5077407;28;19977;-87
2022/11/29 01:48:29;;;;;;;;;;;7.20;99.90;;;;;;5094432;28;19931;-88
2022/11/29 01:51:02;;;;;;;;;;;8.10;99.90;;;;;;5077660;28;20030;-87
2022/11/29 01:53:33;;;;;;;;;;;7.20;99.90;;;;;;5094513;28;19927;-87
2022/11/29 01:56:02;;;;;;;;;;;8.00;99.90;;;;;;5077278;28;19985;-87
2022/11/29 01:58:31;;;;;;;;;;;8.20;99.90;;;;;;5094028;28;19924;-87
2022/11/29 02:00:57;;;;;;;;;;;6.30;99.90;;;;;;5059818;28;19924;-87
2022/11/29 02:03:25;;;;;;;;;;;7.20;99.90;;;;;;5060436;28;19967;-88
2022/11/29 02:05:58;;;;;;;;;;;7.70;99.90;;;;;;5093831;28;19947;-87
2022/11/29 02:08:44;;;;;;;;;;;7.20;99.90;;;;;;5076927;28;19924;-87
2022/11/29 02:11:28;;;;;;;;;;;7.20;99.90;;;;;;5092766;28;19963;-87
2022/11/29 02:14:02;;;;;;;;;;;6.60;99.90;;;;;;5077033;28;20221;-87
2022/11/29 02:16:31;;;;;;;;;;;6.40;99.90;;;;;;5077395;28;19942;-87
2022/11/29 02:19:22;;;;;;;;;;;6.60;99.90;;;;;;5076757;28;19924;-87
2022/11/29 02:21:54;;;;;;;;;;;7.20;99.90;;;;;;5076899;28;19931;-87
2022/11/29 02:24:26;;;;;;;;;;;7.20;99.90;;;;;;5076972;28;19989;-87
2022/11/29 02:27:02;;;;;;;;;;;7.20;99.90;;;;;;5075887;28;20379;-87
2022/11/29 02:29:39;;;;;;;;;;;6.40;99.90;;;;;;5076434;28;19924;-87
2022/11/29 02:32:20;;;;;;;;;;;7.10;99.90;;;;;;5077125;28;19926;-87
2022/11/29 02:34:54;;;;;;;;;;;7.10;99.90;;;;;;5076029;28;20399;-88
2022/11/29 02:37:22;;;;;;;;;;;7.10;99.90;;;;;;5076260;28;19935;-87
2022/11/29 02:39:55;;;;;;;;;;;7.10;99.90;;;;;;5093494;28;20003;-87
2022/11/29 02:42:28;;;;;;;;;;;7.10;99.90;;;;;;5076624;28;19924;-87
2022/11/29 02:45:13;;;;;;;;;;;7.10;99.90;;;;;;5076919;28;19930;-87
2022/11/29 02:47:41;;;;;;;;;;;7.10;99.90;;;;;;5076211;28;19928;-87
2022/11/29 02:50:19;;;;;;;;;;;7.10;99.90;;;;;;5076291;28;19932;-87
2022/11/29 02:52:53;;;;;;;;;;;7.00;99.90;;;;;;5076354;28;19943;-87
2022/11/29 02:55:31;;;;;;;;;;;7.00;99.90;;;;;;5092653;28;20346;-87
2022/11/29 02:58:06;;;;;;;;;;;7.10;99.90;;;;;;5076717;28;19940;-87
2022/11/29 03:00:36;;;;;;;;;;;7.00;99.90;;;;;;5075225;28;19924;-87
2022/11/29 03:03:10;;;;;;;;;;;7.80;99.90;;;;;;5092887;28;20010;-87
2022/11/29 03:05:52;;;;;;;;;;;7.10;99.90;;;;;;5076244;28;19924;-87
2022/11/29 03:08:29;;;;;;;;;;;7.00;99.90;;;;;;5075979;28;19924;-88
2022/11/29 03:11:01;;;;;;;;;;;7.00;99.90;;;;;;5077000;28;19924;-87
2022/11/29 03:13:44;;;;;;;;;;;7.00;99.90;;;;;;5104199;28;19912;-88
2022/11/29 03:16:17;;;;;;;;;;;7.00;99.90;;;;;;5099939;28;19912;-87
2022/11/29 03:19:01;;;;;;;;;;;6.20;99.90;;;;;;5099928;28;19912;-87
2022/11/29 03:21:41;;;;;;;;;;;7.00;99.90;;;;;;5099987;28;20006;-88
2022/11/29 03:24:29;;;;;;;;;;;7.00;99.90;;;;;;5085549;28;20024;-88
2022/11/29 03:27:02;;;;;;;;;;;6.90;99.90;;;;;;5080668;28;20316;-87
2022/11/29 03:29:28;;;;;;;;;;;6.90;99.90;;;;;;5097421;28;20029;-87
2022/11/29 03:32:15;;;;;;;;;;;7.00;99.90;;;;;;5079004;28;19924;-87
2022/11/29 03:35:02;;;;;;;;;;;6.20;99.90;;;;;;5101487;28;19955;-87
2022/11/29 03:37:37;;;;;;;;;;;6.90;99.90;;;;;;5080162;28;19957;-87
2022/11/29 03:40:14;;;;;;;;;;;5.90;99.90;;;;;;5076631;28;20350;-88
2022/11/29 03:43:02;;;;;;;;;;;6.90;99.90;;;;;;5075975;28;19932;-87
2022/11/29 03:45:32;;;;;;;;;;;7.20;99.90;;;;;;5092193;28;20019;-88
2022/11/29 03:48:08;;;;;;;;;;;6.90;99.90;;;;;;5094166;28;19924;-87
2022/11/29 03:50:36;;;;;;;;;;;6.90;99.90;;;;;;5079675;28;19924;-88
2022/11/29 03:53:07;;;;;;;;;;;6.90;99.90;;;;;;5079505;28;20047;-87
2022/11/29 03:55:51;;;;;;;;;;;6.90;99.90;;;;;;5079197;28;19966;-87
2022/11/29 03:58:22;;;;;;;;;;;6.90;99.90;;;;;;5079641;28;19932;-87
2022/11/29 04:00:48;;;;;;;;;;;6.90;99.90;;;;;;5078995;28;19924;-87
2022/11/29 04:03:29;;;;;;;;;;;7.70;99.90;;;;;;5096519;28;19932;-87
2022/11/29 04:05:54;;;;;;;;;;;6.90;99.90;;;;;;5080260;28;19925;-87
2022/11/29 04:08:29;;;;;;;;;;;6.80;99.90;;;;;;5079667;28;20014;-87
2022/11/29 04:11:10;;;;;;;;;;;6.80;99.90;;;;;;5080091;28;19924;-87
2022/11/29 04:13:47;;;;;;;;;;;6.70;99.90;;;;;;5078811;28;19931;-87
2022/11/29 04:16:32;;;;;;;;;;;6.70;99.90;;;;;;5096249;28;19947;-87
2022/11/29 04:19:16;;;;;;;;;;;6.70;99.90;;;;;;5079446;28;19924;-87
2022/11/29 04:21:48;;;;;;;;;;;6.00;99.90;;;;;;5079043;28;20325;-88
2022/11/29 04:24:32;;;;;;;;;;;6.70;99.90;;;;;;5079309;28;19989;-87
2022/11/29 04:26:57;;;;;;;;;;;6.60;99.90;;;;;;5079410;28;20334;-87
2022/11/29 04:29:29;;;;;;;;;;;6.60;99.90;;;;;;5079707;28;19934;-87
2022/11/29 04:32:01;;;;;;;;;;;6.80;99.90;;;;;;5095739;28;19924;-87
2022/11/29 04:34:53;;;;;;;;;;;6.70;99.90;;;;;;5078837;28;20015;-87
2022/11/29 04:37:21;;;;;;;;;;;6.70;99.90;;;;;;5078971;28;20264;-87
2022/11/29 04:40:06;;;;;;;;;;;6.70;99.90;;;;;;5078571;28;20281;-88
2022/11/29 04:42:56;;;;;;;;;;;7.20;99.90;;;;;;5078657;28;20248;-87
2022/11/29 04:45:24;;;;;;;;;;;6.50;99.90;;;;;;5078872;28;19935;-87
2022/11/29 04:47:50;;;;;;;;;;;6.40;99.90;;;;;;5078170;28;20023;-87
2022/11/29 04:50:36;;;;;;;;;;;6.40;99.90;;;;;;5078964;28;19928;-87
2022/11/29 04:53:10;;;;;;;;;;;6.50;99.90;;;;;;5078305;28;20364;-88
2022/11/29 04:55:55;;;;;;;;;;;6.50;99.90;;;;;;5078176;28;19931;-87
2022/11/29 04:58:23;;;;;;;;;;;6.50;99.90;;;;;;5095838;28;19935;-87
2022/11/29 05:00:53;;;;;;;;;;;6.80;99.90;;;;;;5094702;28;20023;-87
2022/11/29 05:03:42;;;;;;;;;;;7.10;99.90;;;;;;5095294;28;19978;-88
2022/11/29 05:06:20;;;;;;;;;;;6.50;99.90;;;;;;5066576;28;20027;-87
2022/11/29 05:08:51;;;;;;;;;;;6.50;99.90;;;;;;5079406;28;19966;-87
2022/11/29 05:11:34;;;;;;;;;;;6.40;99.90;;;;;;5080971;28;19935;-88
2022/11/29 05:14:15;;;;;;;;;;;6.50;99.90;;;;;;5080300;28;20025;-88
2022/11/29 05:17:10;;;;;;;;;;;6.30;99.90;;;;;;5078208;28;19924;-88
2022/11/29 05:19:51;;;;;;;;;;;6.30;99.90;;;;;;5082146;28;19991;-87
2022/11/29 05:22:36;;;;;;;;;;;6.30;99.90;;;;;;5095633;28;19947;-87
2022/11/29 05:25:29;;;;;;;;;;;6.10;99.90;;;;;;5077860;28;19924;-87
2022/11/29 05:28:01;;;;;;;;;;;6.30;99.90;;;;;;5095643;28;20018;-87
2022/11/29 05:30:39;;;;;;;;;;;6.30;99.90;;;;;;5078137;28;19931;-87
2022/11/29 05:33:32;;;;;;;;;;;6.20;99.90;;;;;;5077711;28;19971;-87
2022/11/29 05:35:57;;;;;;;;;;;6.20;99.90;;;;;;5095419;28;19924;-87
2022/11/29 05:38:23;;;;;;;;;;;6.30;99.90;;;;;;5077502;28;19924;-87
2022/11/29 05:41:07;;;;;;;;;;;6.20;99.90;;;;;;5077771;28;19932;-87
2022/11/29 05:43:39;;;;;;;;;;;6.20;99.90;;;;;;5077525;28;19924;-87
2022/11/29 05:46:14;;;;;;;;;;;6.10;99.90;;;;;;5078250;28;19933;-87
2022/11/29 05:48:57;;;;;;;;;;;6.10;99.90;;;;;;5077372;28;19924;-87
2022/11/29 05:51:38;;;;;;;;;;;6.10;99.90;;;;;;5093897;28;20371;-88
2022/11/29 05:54:06;;;;;;;;;;;6.10;99.90;;;;;;5076603;28;19925;-87
2022/11/29 05:56:37;;;;;;;;;;;6.10;99.90;;;;;;5094122;28;20011;-87
2022/11/29 05:59:17;;;;;;;;;;;6.10;99.90;;;;;;5077921;28;19963;-87
2022/11/29 06:01:48;;;;;;;;;;;6.10;99.90;;;;;;5076942;28;20284;-87
2022/11/29 06:04:19;;;;;;;;;;;6.10;99.90;;;;;;5077410;28;19931;-87
2022/11/29 06:06:53;;;;;;;;;;;6.00;99.90;;;;;;5077547;28;19928;-88
2022/11/29 06:09:31;;;;;;;;;;;5.10;99.90;;;;;;5077244;28;19976;-88
2022/11/29 06:12:09;;;;;;;;;;;6.00;99.90;;;;;;5076440;28;19924;-87
2022/11/29 06:14:34;;;;;;;;;;;6.00;99.90;;;;;;5077190;28;19974;-87
2022/11/29 06:17:21;;;;;;;;;;;6.40;99.90;;;;;;5093622;28;19970;-88
2022/11/29 06:19:57;;;;;;;;;;;6.00;99.90;;;;;;5093901;28;20313;-87
2022/11/29 06:22:38;;;;;;;;;;;6.10;99.90;;;;;;5076061;28;19928;-87
2022/11/29 06:25:27;;;;;;;;;;;6.00;99.90;;;;;;5076163;28;19924;-86
2022/11/29 06:28:07;;;;;;;;;;;6.10;99.90;;;;;;5057526;28;20011;-88
2022/11/29 06:30:46;;;;;;;;;;;6.10;99.90;;;;;;5076631;28;19925;-88
2022/11/29 06:33:34;;;;;;;;;;;6.00;99.90;;;;;;5076573;28;19974;-87
2022/11/29 06:36:10;;;;;;;;;;;7.30;99.90;;;;;;5075866;28;19924;-87
2022/11/29 06:38:44;;;;;;;;;;;6.00;99.90;;;;;;5075895;28;20344;-89
2022/11/29 06:41:34;;;;;;;;;;;6.00;99.90;;;;;;5076598;28;19973;-88
2022/11/29 06:44:13;;;;;;;;;;;5.60;99.90;;;;;;5076268;28;19964;-88
2022/11/29 06:46:46;;;;;;;;;;;6.20;99.90;;;;;;5076896;28;19928;-88
2022/11/29 06:49:26;;;;;;;;;;;5.90;99.90;;;;;;5075369;28;19950;-89
2022/11/29 06:52:12;;;;;;;;;;;6.60;99.90;;;;;;5075014;28;19963;-89
2022/11/29 06:54:56;;;;;;;;;;;5.90;99.90;;;;;;5076578;28;19925;-89
2022/11/29 06:57:31;;;;;;;;;;;6.00;99.90;;;;;;5075970;28;19924;-88
2022/11/29 07:00:24;;;;;;;;;;;5.90;99.90;;;;;;5076395;28;19924;-88
2022/11/29 07:03:11;;;;;;;;;;;7.00;99.90;;;;;;5076376;28;20014;-88
2022/11/29 07:05:49;;;;;;;;;;;5.80;99.90;;;;;;5076220;28;19924;-90
2022/11/29 07:08:28;;;;;;;;;;;5.90;99.90;;;;;;5076686;28;19971;-89
2022/11/29 07:10:54;;;;;;;;;;;6.00;99.90;;;;;;5075721;28;19954;-87
2022/11/29 07:13:33;;;;;;;;;;;;;;;;;;;;;
2022/11/29 07:16:32;;;;;;;;;;;;;;;;;;;;;
2022/11/29 07:31:37;;;;;;;;;;;6.00;99.90;;;;;;5032342;28;19932;-87
2022/11/29 07:34:05;;;;;;;;;;;6.10;99.90;;;;;;5034445;28;20044;-87
2022/11/29 07:36:54;;;;;;;;;;;6.00;99.90;;;;;;5017758;28;20475;-88
2022/11/29 07:39:52;;;;;;;;;;;6.00;99.90;;;;;;5025108;28;19929;-88
2022/11/29 07:42:39;;;;;;;;;;;6.00;99.90;;;;;;4975878;28;19984;-89
2022/11/29 07:45:11;;;;;;;;;;;5.90;99.90;;;;;;4991952;28;19970;-88
2022/11/29 07:47:39;;;;;;;;;;;6.00;99.90;;;;;;5035520;28;19924;-90
2022/11/29 07:50:13;;;;;;;;;;;5.90;99.90;;;;;;5051978;28;19960;-91
2022/11/29 07:52:58;;;;;;;;;;;5.90;99.90;;;;;;5058585;28;19924;-89
2022/11/29 07:55:25;;;;;;;;;;;6.00;99.90;;;;;;5042423;28;19923;-90
2022/11/29 07:57:54;;;;;;;;;;;5.00;99.90;;;;;;5058471;28;19932;-90
2022/11/29 08:00:29;;;;;;;;;;;5.80;99.90;;;;;;5088901;28;19985;-91
2022/11/29 08:03:08;;;;;;;;;;;;;;;;;;;;;
2022/11/29 08:06:04;;;;;;;;;;;;;;;;;;;;;
2022/11/29 08:08:32;;;;;;;;;;;5.90;99.90;;;;;;5099136;28;19924;-88
2022/11/29 08:11:14;;;;;;;;;;;5.90;99.90;;;;;;5097144;28;19932;-88
2022/11/29 08:13:59;;;;;;;;;;;6.80;99.90;;;;;;5092834;28;19934;-91
2022/11/29 08:16:43;;;;;;;;;;;6.20;99.90;;;;;;5075495;28;20032;-89
2022/11/29 08:19:41;;;;;;;;;;;6.00;99.90;;;;;;5091596;28;20011;-91
2022/11/29 08:22:17;;;;;;;;;;;5.90;99.90;;;;;;5092321;28;20247;-90
2022/11/29 08:25:03;;;;;;;;;;;6.00;99.90;;;;;;5058879;28;20333;-89
2022/11/29 08:27:37;;;;;;;;;;;5.70;99.90;;;;;;5076254;28;19924;-88
2022/11/29 08:30:13;;;;;;;;;;;6.40;99.90;;;;;;5092550;28;19931;-91
2022/11/29 08:32:41;;;;;;;;;;;6.10;99.90;;;;;;5074687;28;19934;-89
2022/11/29 08:35:12;;;;;;;;;;;6.20;99.90;;;;;;5061532;28;20320;-90
2022/11/29 08:37:58;;;;;;;;;;;6.50;99.90;;;;;;5095858;28;19925;-90
2022/11/29 08:40:29;;;;;;;;;;;6.20;99.90;;;;;;5079329;28;20065;-89
2022/11/29 08:42:58;;;;;;;;;;;6.30;99.90;;;;;;5095467;28;19979;-89
2022/11/29 08:45:24;;;;;;;;;;;6.10;99.90;;;;;;5078062;28;19924;-89
2022/11/29 08:48:00;;;;;;;;;;;7.30;99.90;;;;;;5078381;28;19924;-89
2022/11/29 08:50:30;;;;;;;;;;;6.30;99.90;;;;;;5096180;28;19924;-88
2022/11/29 08:55:45;;;;;;;;;;;6.30;99.90;;;;;;5081655;28;20077;-89
2022/11/29 09:04:01;;;;;;;;;;;6.40;99.90;;;;;;5082811;28;19924;-89
2022/11/29 09:09:34;;;;;;;;;;;6.50;99.90;;;;;;5083875;28;19924;-89
2022/11/29 09:12:10;;;;;;;;;;;;;;;;;;;;;
2022/11/29 09:15:06;;;;;;;;;;;;;;;;;;;;;
2022/11/29 09:17:46;;;;;;;;;;;6.50;99.90;;;;;;5095509;28;19924;-90
2022/11/29 09:20:42;;;;;;;;;;;6.60;99.90;;;;;;5078286;28;20010;-88
2022/11/29 09:23:24;;;;;;;;;;;6.60;99.90;;;;;;5077013;28;20394;-90
2022/11/29 09:26:15;;;;;;;;;;;6.70;99.90;;;;;;5065504;28;19924;-90
2022/11/29 09:29:16;;;;;;;;;;;6.80;99.90;;;;;;5076612;28;19924;-92
2022/11/29 09:32:02;;;;;;;;;;;6.60;99.90;;;;;;5086266;28;19924;-89
2022/11/29 09:34:31;;;;;;;;;;;7.70;99.90;;;;;;5062612;28;19931;-89
2022/11/29 09:36:59;;;;;;;;;;;7.00;99.90;;;;;;5077628;28;20342;-89
2022/11/29 09:39:34;;;;;;;;;;;6.50;99.90;;;;;;5077057;28;19932;-90
2022/11/29 09:42:26;;;;;;;;;;;7.40;99.90;;;;;;5061821;28;20302;-91
2022/11/29 09:48:21;;;;;;;;;;;;;;;;;;;;;
2022/11/29 09:51:00;;;;;;;;;;;7.30;99.90;;;;;;5094139;28;19931;-90
2022/11/29 09:53:26;;;;;;;;;;;7.40;99.90;;;;;;5077215;28;19924;-90
2022/11/29 09:55:54;;;;;;;;;;;7.40;99.90;;;;;;5077319;28;20306;-89
2022/11/29 09:58:42;;;;;;;;;;;7.50;99.90;;;;;;5077252;28;20037;-90
2022/11/29 10:01:51;;;;;;;;;;;7.50;99.90;;;;;;5077523;28;20480;-90
2022/11/29 10:04:20;;;;;;;;;;;7.90;99.90;;;;;;5053031;28;19999;-89
2022/11/29 10:07:07;;;;;;;;;;;7.60;99.90;;;;;;5083262;28;20031;-90
2022/11/29 10:09:58;;;;;;;;;;;7.50;99.90;;;;;;5077425;28;19928;-90
2022/11/29 10:12:26;;;;;;;;;;;7.80;99.90;;;;;;5093557;28;19928;-90
2022/11/29 10:15:17;;;;;;;;;;;8.50;99.90;;;;;;5076757;28;20276;-90
2022/11/29 10:17:49;;;;;;;;;;;7.90;99.90;;;;;;5088469;28;19924;-87
2022/11/29 10:20:46;;;;;;;;;;;7.10;99.90;;;;;;5076674;28;19924;-88
2022/11/29 10:23:33;;;;;;;;;;;7.90;99.90;;;;;;5072164;28;19926;-87
2022/11/29 10:26:06;;;;;;;;;;;8.00;99.90;;;;;;5076281;28;19951;-88
2022/11/29 10:28:36;;;;;;;;;;;8.10;99.90;;;;;;5076833;28;19924;-88
2022/11/29 10:31:15;;;;;;;;;;;8.10;99.90;;;;;;5076507;28;20038;-87
2022/11/29 10:33:52;;;;;;;;;;;8.10;99.90;;;;;;5077739;28;19930;-87
2022/11/29 10:36:24;;;;;;;;;;;8.20;99.90;;;;;;5076878;28;19924;-89
2022/11/29 10:39:05;;;;;;;;;;;7.90;99.90;;;;;;5076936;28;20028;-89
2022/11/29 10:41:53;;;;;;;;;;;8.60;99.90;;;;;;5076600;28;20011;-88
2022/11/29 10:44:24;;;;;;;;;;;8.30;99.90;;;;;;5093501;28;19928;-87
2022/11/29 10:46:53;;;;;;;;;;;8.40;99.90;;;;;;5076736;28;19924;-87
2022/11/29 10:49:24;;;;;;;;;;;8.10;99.90;;;;;;5076164;28;19928;-88
2022/11/29 10:51:53;;;;;;;;;;;8.40;99.90;;;;;;5075476;28;19924;-88
2022/11/29 10:54:48;;;;;;;;;;;8.40;99.90;;;;;;5092746;28;19992;-88
2022/11/29 10:57:22;;;;;;;;;;;8.50;99.90;;;;;;5070985;28;19924;-89
2022/11/29 11:00:12;;;;;;;;;;;8.60;99.90;;;;;;5092296;28;19925;-88
2022/11/29 11:02:38;;;;;;;;;;;8.00;99.90;;;;;;5075812;28;19971;-87
2022/11/29 11:05:31;;;;;;;;;;;8.70;99.90;;;;;;5077474;28;19982;-88
2022/11/29 11:07:57;;;;;;;;;;;8.00;99.90;;;;;;5093239;28;19924;-87
2022/11/29 11:10:29;;;;;;;;;;;9.10;99.90;;;;;;5092194;28;19974;-88
2022/11/29 11:13:13;;;;;;;;;;;8.80;99.90;;;;;;5092512;28;19930;-87
2022/11/29 11:15:38;;;;;;;;;;;8.80;99.90;;;;;;5075877;28;19943;-88
2022/11/29 11:18:18;;;;;;;;;;;9.00;99.90;;;;;;5075805;28;19924;-88
2022/11/29 11:20:50;;;;;;;;;;;8.90;99.90;;;;;;5075521;28;19946;-88
2022/11/29 11:23:26;;;;;;;;;;;9.00;99.90;;;;;;5092368;28;19931;-88
2022/11/29 11:26:04;;;;;;;;;;;9.00;99.90;;;;;;5075203;28;19928;-88
2022/11/29 11:28:38;;;;;;;;;;;9.00;99.90;;;;;;5074902;28;19924;-88
2022/11/29 11:31:07;;;;;;;;;;;9.60;99.90;;;;;;5075751;28;19951;-89
2022/11/29 11:33:38;;;;;;;;;;;9.00;99.90;;;;;;5075208;28;19924;-88
2022/11/29 11:36:03;;;;;;;;;;;9.10;99.90;;;;;;5075548;28;20014;-88
2022/11/29 11:38:29;;;;;;;;;;;9.10;99.90;;;;;;5075614;28;20327;-88
2022/11/29 11:41:10;;;;;;;;;;;9.10;99.90;;;;;;5075033;28;19924;-88
2022/11/29 11:43:38;;;;;;;;;;;9.20;99.90;;;;;;5075800;28;19924;-88
2022/11/29 11:46:04;;;;;;;;;;;9.20;99.90;;;;;;5092194;28;20025;-88
2022/11/29 11:48:31;;;;;;;;;;;9.10;99.90;;;;;;5075656;28;20332;-88
2022/11/29 11:51:03;;;;;;;;;;;8.50;99.90;;;;;;5075344;28;19924;-88
2022/11/29 11:53:29;;;;;;;;;;;9.10;99.90;;;;;;5075289;28;19928;-88
2022/11/29 11:56:02;;;;;;;;;;;9.10;99.90;;;;;;5075360;28;19931;-88
2022/11/29 11:58:36;;;;;;;;;;;9.10;99.90;;;;;;5075398;28;19928;-88
2022/11/29 12:01:22;;;;;;;;;;;9.10;99.90;;;;;;5074666;28;19977;-89
2022/11/29 12:03:58;;;;;;;;;;;9.10;99.90;;;;;;5075142;28;20306;-87
2022/11/29 12:06:46;;;;;;;;;;;9.10;99.90;;;;;;5075182;28;20290;-87
2022/11/29 12:12:35;;;;;;;;;;;9.10;99.90;;;;;;5097079;28;19993;-88
2022/11/29 12:15:17;;;;;;;;;;;9.00;99.90;;;;;;5080273;28;20344;-88
2022/11/29 12:18:02;;;;;;;;;;;9.70;99.90;;;;;;5117325;28;19943;-89
2022/11/29 12:20:50;;;;;;;;;;;9.00;99.90;;;;;;5103320;28;19928;-89
2022/11/29 12:23:39;;;;;;;;;;;9.00;99.90;;;;;;5102877;28;19912;-89
2022/11/29 12:26:10;;;;;;;;;;;9.00;99.90;;;;;;5093932;28;19975;-88
2022/11/29 12:28:45;;;;;;;;;;;8.90;99.90;;;;;;5081397;28;20271;-87
2022/11/29 12:31:11;;;;;;;;;;;8.50;99.90;;;;;;5081721;28;19924;-88
2022/11/29 12:33:58;;;;;;;;;;;9.70;99.90;;;;;;5081948;28;19990;-89
2022/11/29 12:36:23;;;;;;;;;;;8.20;99.90;;;;;;5080197;28;19924;-87
2022/11/29 12:39:07;;;;;;;;;;;;;;;;;;;;;
2022/11/29 12:42:03;;;;;;;;;;;;;;;;;;;;;
2022/11/29 12:44:58;;;;;;;;;;;8.80;99.90;;;;;;5096374;28;19932;-89
2022/11/29 12:47:32;;;;;;;;;;;8.20;99.90;;;;;;5077779;28;19924;-89
2022/11/29 12:50:06;;;;;;;;;;;8.90;99.90;;;;;;5079067;28;19975;-88
2022/11/29 12:53:01;;;;;;;;;;;8.70;99.90;;;;;;5078648;28;19924;-88
2022/11/29 12:55:50;;;;;;;;;;;8.70;99.90;;;;;;5095153;28;20021;-88
2022/11/29 12:58:35;;;;;;;;;;;8.70;99.90;;;;;;5078522;28;19924;-88
2022/11/29 13:01:30;;;;;;;;;;;8.70;99.90;;;;;;5078453;28;19932;-88
2022/11/29 13:04:11;;;;;;;;;;;8.60;99.90;;;;;;5078746;28;19931;-88
2022/11/29 13:06:51;;;;;;;;;;;8.70;99.90;;;;;;5078438;28;20007;-89
2022/11/29 13:09:38;;;;;;;;;;;8.60;99.90;;;;;;5079012;28;19924;-88
2022/11/29 13:12:06;;;;;;;;;;;8.50;99.90;;;;;;5077795;28;19924;-87
2022/11/29 13:20:55;;;;;;;;;;;8.40;99.90;;;;;;5092856;28;20502;-90
2022/11/29 13:23:31;;;;;;;;;;;8.40;99.90;;;;;;5078064;28;20385;-89
2022/11/29 13:26:16;;;;;;;;;;;8.30;99.90;;;;;;5078460;28;19971;-90
2022/11/29 13:28:45;;;;;;;;;;;8.10;99.90;;;;;;5077155;28;19931;-88
2022/11/29 13:31:14;;;;;;;;;;;7.70;99.90;;;;;;5077612;28;19931;-89
2022/11/29 13:33:56;;;;;;;;;;;8.20;99.90;;;;;;5077409;28;20019;-89
2022/11/29 13:36:41;;;;;;;;;;;8.20;99.90;;;;;;5077746;28;19935;-88
2022/11/29 13:39:25;;;;;;;;;;;8.20;99.90;;;;;;5077636;28;20276;-88
2022/11/29 13:42:01;;;;;;;;;;;8.20;99.90;;;;;;5077414;28;20011;-88
2022/11/29 13:44:33;;;;;;;;;;;8.20;99.90;;;;;;5077513;28;19924;-88
2022/11/29 13:47:02;;;;;;;;;;;8.10;99.90;;;;;;5078358;28;19927;-89
2022/11/29 13:49:52;;;;;;;;;;;8.10;99.90;;;;;;5077799;28;19971;-88
2022/11/29 13:52:46;;;;;;;;;;;8.10;99.90;;;;;;5093952;28;19924;-90
2022/11/29 13:55:21;;;;;;;;;;;8.10;99.90;;;;;;5094147;28;20397;-88
2022/11/29 13:57:53;;;;;;;;;;;8.10;99.90;;;;;;5076424;28;19930;-89
2022/11/29 14:00:38;;;;;;;;;;;8.00;99.90;;;;;;5077355;28;19932;-89
2022/11/29 14:03:30;;;;;;;;;;;7.90;99.90;;;;;;5077109;28;19930;-88
2022/11/29 14:06:23;;;;;;;;;;;7.90;99.90;;;;;;5073824;28;19924;-88
2022/11/29 14:09:14;;;;;;;;;;;7.90;99.90;;;;;;5077810;28;20356;-90
2022/11/29 14:11:59;;;;;;;;;;;7.90;99.90;;;;;;5093402;28;20444;-89
2022/11/29 14:14:39;;;;;;;;;;;8.10;99.90;;;;;;5076804;28;20371;-91
2022/11/29 14:20:31;;;;;;;;;;;7.60;99.90;;;;;;5044452;28;19924;-89
2022/11/29 14:23:11;;;;;;;;;;;7.80;99.90;;;;;;5076775;28;19935;-88
2022/11/29 14:25:59;;;;;;;;;;;7.80;99.90;;;;;;5077667;28;19924;-89
2022/11/29 14:28:36;;;;;;;;;;;7.70;99.90;;;;;;5076247;28;19924;-88
2022/11/29 14:31:02;;;;;;;;;;;7.60;99.90;;;;;;5075526;28;19924;-88
2022/11/29 14:33:46;;;;;;;;;;;7.40;99.90;;;;;;5059789;28;19947;-88
2022/11/29 14:36:27;;;;;;;;;;;7.60;99.90;;;;;;5076451;28;19924;-88
2022/11/29 14:39:19;;;;;;;;;;;7.70;99.90;;;;;;5076041;28;19931;-89
2022/11/29 14:42:00;;;;;;;;;;;7.70;99.90;;;;;;5076568;28;19946;-90
2022/11/29 14:44:27;;;;;;;;;;;7.60;99.90;;;;;;5076640;28;20011;-89
2022/11/29 14:47:06;;;;;;;;;;;7.70;99.90;;;;;;5077455;28;19931;-88
2022/11/29 14:49:52;;;;;;;;;;;7.60;99.90;;;;;;5076251;28;19924;-88
2022/11/29 14:52:25;;;;;;;;;;;7.20;99.90;;;;;;5054716;28;19935;-89
2022/11/29 14:55:06;;;;;;;;;;;7.60;99.90;;;;;;5077447;28;20355;-88
2022/11/29 14:57:43;;;;;;;;;;;6.80;99.90;;;;;;5076689;28;19931;-88
2022/11/29 15:00:32;;;;;;;;;;;7.50;99.90;;;;;;5076090;28;20267;-90
2022/11/29 15:02:57;;;;;;;;;;;7.80;99.90;;;;;;5065039;28;19931;-89
2022/11/29 15:05:31;;;;;;;;;;;7.60;99.90;;;;;;5076414;28;19932;-89
2022/11/29 15:08:03;;;;;;;;;;;7.50;99.90;;;;;;5075425;28;20429;-88
2022/11/29 15:10:34;;;;;;;;;;;7.50;99.90;;;;;;5075530;28;19983;-89
2022/11/29 15:13:20;;;;;;;;;;;7.50;99.90;;;;;;5092981;28;19935;-87
2022/11/29 15:16:10;;;;;;;;;;;6.80;99.90;;;;;;5075644;28;19924;-90
2022/11/29 15:18:46;;;;;;;;;;;7.00;99.90;;;;;;5077890;28;19931;-90
2022/11/29 15:21:49;;;;;;;;;;;7.50;99.90;;;;;;5076885;28;19928;-91
2022/11/29 15:24:35;;;;;;;;;;;;;;;;;;;;;
2022/11/29 15:27:23;;;;;;;;;;;;;;;;;;;;;
2022/11/29 15:30:01;;;;;;;;;;;;;;;;;;;;;
2022/11/29 15:35:27;;;;;;;;;;;7.40;99.90;;;;;;5069015;28;19924;-87
2022/11/29 15:37:53;;;;;;;;;;;7.40;99.90;;;;;;5075171;28;19930;-85
2022/11/29 15:40:20;;;;;;;;;;;7.40;99.90;;;;;;5075074;28;19942;-87
2022/11/29 15:42:48;;;;;;;;;;;7.40;99.90;;;;;;5075653;28;19924;-87
2022/11/29 15:45:40;;;;;;;;;;;7.40;99.90;;;;;;5079213;28;19924;-87
2022/11/29 15:48:12;;;;;;;;;;;7.40;99.90;;;;;;5078340;28;19981;-87
2022/11/29 15:50:40;;;;;;;;;;;7.30;99.90;;;;;;5096344;28;19924;-87
2022/11/29 15:53:07;;;;;;;;;;;7.80;99.90;;;;;;5079321;28;19931;-87
2022/11/29 15:55:34;;;;;;;;;;;7.30;99.90;;;;;;5096063;28;20287;-87
2022/11/29 15:58:00;;;;;;;;;;;7.30;99.90;;;;;;5096781;28;19931;-86
2022/11/29 16:00:29;;;;;;;;;;;7.30;99.90;;;;;;5079240;28;19924;-87
2022/11/29 16:03:04;;;;;;;;;;;7.30;99.90;;;;;;5079769;28;19924;-86
2022/11/29 16:05:37;;;;;;;;;;;7.00;99.90;;;;;;5079132;28;19978;-86
2022/11/29 16:08:05;;;;;;;;;;;6.40;99.90;;;;;;5095971;28;19970;-87
2022/11/29 16:10:34;;;;;;;;;;;7.20;99.90;;;;;;5095602;28;19924;-86
2022/11/29 16:13:23;;;;;;;;;;;7.20;99.90;;;;;;5095491;28;19931;-87
2022/11/29 16:16:02;;;;;;;;;;;7.20;99.90;;;;;;5077762;28;19928;-86
2022/11/29 16:18:28;;;;;;;;;;;7.20;99.90;;;;;;5096427;28;20273;-86
2022/11/29 16:20:58;;;;;;;;;;;7.20;99.90;;;;;;5078986;28;19924;-86
2022/11/29 16:23:31;;;;;;;;;;;6.50;99.90;;;;;;5078957;28;20030;-85